createdAt,value
2023-01-19T00:01:28.037Z,42.05
2023-01-19T00:03:54.791Z,36.42
2023-01-19T00:06:21.541Z,37.70
2023-01-19T00:08:52.978Z,39.67
2023-01-19T00:11:19.899Z,39.42
2023-01-19T00:13:50.608Z,38.17
2023-01-19T00:16:18.967Z,42.03
2023-01-19T00:18:46.701Z,47.08
2023-01-19T00:21:17.258Z,37.92
2023-01-19T00:23:47.441Z,36.95
2023-01-19T00:26:16.340Z,44.95
2023-01-19T00:28:44.992Z,38.25
2023-01-19T00:31:12.237Z,39.83
2023-01-19T00:33:38.869Z,42.20
2023-01-19T00:36:05.720Z,36.70
2023-01-19T00:38:32.397Z,46.97
2023-01-19T00:40:59.568Z,38.95
2023-01-19T00:43:26.180Z,37.83
2023-01-19T00:45:53.638Z,37.90
2023-01-19T00:48:20.404Z,38.08
2023-01-19T00:50:49.134Z,39.00
2023-01-19T00:53:15.808Z,45.05
2023-01-19T00:55:42.459Z,44.30
2023-01-19T00:58:09.717Z,38.28
2023-01-19T01:00:39.205Z,38.22
2023-01-19T01:03:05.874Z,37.08
2023-01-19T01:05:32.580Z,45.60
2023-01-19T01:07:59.322Z,48.08
2023-01-19T01:10:28.722Z,39.03
2023-01-19T01:13:20.397Z,37.92
2023-01-19T01:18:10.031Z,35.28
2023-01-19T01:20:37.162Z,46.63
2023-01-19T01:23:04.388Z,36.33
2023-01-19T01:25:31.599Z,47.60
2023-01-19T01:27:58.268Z,40.83
2023-01-19T01:30:30.820Z,39.38
2023-01-19T01:32:57.448Z,38.42
2023-01-19T01:35:24.169Z,38.05
2023-01-19T01:37:50.827Z,38.45
2023-01-19T01:40:19.080Z,37.75
2023-01-19T01:42:46.068Z,45.22
2023-01-19T01:45:38.499Z,38.08
2023-01-19T01:48:13.993Z,39.05
2023-01-19T01:51:12.118Z,38.13
2023-01-19T01:53:43.511Z,37.17
2023-01-19T01:56:17.866Z,36.90
2023-01-19T01:58:49.811Z,43.08
2023-01-19T02:01:35.375Z,37.97
2023-01-19T02:04:02.409Z,39.10
2023-01-19T02:06:29.571Z,46.58
2023-01-19T02:09:22.647Z,40.17
2023-01-19T02:12:10.793Z,46.60
2023-01-19T02:14:40.639Z,36.50
2023-01-19T02:17:07.719Z,38.40
2023-01-19T02:19:43.473Z,47.22
2023-01-19T02:22:20.210Z,38.95
2023-01-19T02:24:47.179Z,47.90
2023-01-19T02:27:27.055Z,41.05
2023-01-19T02:29:56.928Z,36.45
2023-01-19T02:32:23.729Z,36.00
2023-01-19T02:34:50.374Z,36.72
2023-01-19T02:37:21.656Z,47.78
2023-01-19T02:40:10.974Z,38.35
2023-01-19T02:42:45.480Z,37.70
2023-01-19T02:47:52.478Z,35.03
2023-01-19T02:50:50.530Z,37.80
2023-01-19T02:53:29.322Z,35.08
2023-01-19T02:56:25.066Z,41.72
2023-01-19T02:59:03.542Z,35.72
2023-01-19T03:01:48.157Z,36.13
2023-01-19T03:04:25.852Z,40.55
2023-01-19T03:07:00.891Z,38.47
2023-01-19T03:09:53.170Z,45.45
2023-01-19T03:12:49.848Z,38.15
2023-01-19T03:15:27.277Z,38.50
2023-01-19T03:17:57.122Z,35.17
2023-01-19T03:20:25.644Z,37.85
2023-01-19T03:23:00.452Z,36.80
2023-01-19T03:25:30.290Z,35.83
2023-01-19T03:27:57.638Z,46.00
2023-01-19T03:30:36.216Z,44.28
2023-01-19T03:33:17.811Z,45.70
2023-01-19T03:35:52.882Z,37.63
2023-01-19T03:38:25.525Z,39.33
2023-01-19T03:41:00.216Z,41.95
2023-01-19T03:43:29.299Z,36.53
2023-01-19T03:45:57.003Z,35.65
2023-01-19T03:48:27.287Z,37.65
2023-01-19T03:51:03.519Z,43.08
2023-01-19T03:53:30.109Z,35.28
2023-01-19T03:55:57.179Z,46.97
2023-01-19T03:58:26.940Z,37.65
2023-01-19T04:00:53.600Z,44.83
2023-01-19T04:03:20.297Z,38.25
2023-01-19T04:05:46.941Z,36.90
2023-01-19T04:08:16.453Z,35.03
2023-01-19T04:10:43.136Z,38.88
2023-01-19T04:13:09.725Z,37.05
2023-01-19T04:15:43.670Z,35.55
2023-01-19T04:18:10.318Z,39.03
2023-01-19T04:20:37.520Z,42.20
2023-01-19T04:23:05.958Z,37.33
2023-01-19T04:25:33.331Z,37.50
2023-01-19T04:28:06.784Z,36.80
2023-01-19T04:30:33.446Z,44.17
2023-01-19T04:33:00.546Z,37.53
2023-01-19T04:35:27.383Z,46.53
2023-01-19T04:37:54.008Z,45.33
2023-01-19T04:40:20.749Z,36.72
2023-01-19T04:42:47.514Z,37.10
2023-01-19T04:45:14.638Z,37.72
2023-01-19T04:47:42.833Z,36.80
2023-01-19T04:50:11.681Z,34.78
2023-01-19T04:52:39.635Z,35.50
2023-01-19T04:55:07.544Z,36.22
2023-01-19T04:57:37.343Z,35.22
2023-01-19T05:00:07.657Z,37.17
2023-01-19T05:02:35.034Z,37.03
2023-01-19T05:05:02.331Z,34.65
2023-01-19T05:07:31.630Z,37.55
2023-01-19T05:10:00.890Z,43.45
2023-01-19T05:12:27.735Z,35.95
2023-01-19T05:14:54.386Z,37.28
2023-01-19T05:17:21.049Z,44.45
2023-01-19T05:19:48.911Z,36.08
2023-01-19T05:22:16.205Z,48.10
2023-01-19T05:24:43.316Z,39.05
2023-01-19T05:27:10.108Z,43.45
2023-01-19T05:29:39.483Z,36.63
2023-01-19T05:32:06.409Z,46.92
2023-01-19T05:34:37.102Z,35.95
2023-01-19T05:37:03.765Z,34.95
2023-01-19T05:39:32.725Z,36.25
2023-01-19T05:42:02.460Z,38.55
2023-01-19T05:44:29.714Z,43.97
2023-01-19T05:46:56.574Z,40.83
2023-01-19T05:49:23.290Z,48.38
2023-01-19T05:51:56.844Z,40.35
2023-01-19T05:54:23.819Z,37.97
2023-01-19T05:56:54.140Z,41.50
2023-01-19T05:59:25.089Z,42.15
2023-01-19T06:01:55.269Z,44.05
2023-01-19T06:04:25.827Z,43.53
2023-01-19T06:06:55.747Z,44.88
2023-01-19T06:09:22.426Z,38.58
2023-01-19T06:11:50.010Z,45.63
2023-01-19T06:14:18.154Z,49.38
2023-01-19T06:19:15.141Z,44.83
2023-01-19T06:21:41.913Z,38.58
2023-01-19T06:24:15.503Z,34.47
2023-01-19T06:26:45.526Z,39.67
2023-01-19T06:29:16.347Z,39.55
2023-01-19T06:31:44.236Z,45.55
2023-01-19T06:34:11.492Z,43.78
2023-01-19T06:36:41.221Z,42.47
2023-01-19T06:39:13.418Z,36.90
2023-01-19T06:41:47.279Z,34.70
2023-01-19T06:44:17.065Z,35.35
2023-01-19T06:46:46.624Z,44.78
2023-01-19T06:49:13.240Z,38.05
2023-01-19T06:51:39.883Z,38.90
2023-01-19T06:54:06.643Z,39.38
2023-01-19T06:56:33.314Z,40.88
2023-01-19T06:59:00.017Z,35.97
2023-01-19T07:01:27.098Z,38.78
2023-01-19T07:03:59.772Z,37.20
2023-01-19T07:06:26.503Z,37.92
2023-01-19T07:08:54.351Z,49.67
2023-01-19T07:11:23.613Z,38.92
2023-01-19T07:14:05.807Z,36.00
2023-01-19T07:16:35.176Z,38.25
2023-01-19T07:19:04.678Z,37.30
2023-01-19T07:21:31.332Z,46.92
2023-01-19T07:24:01.040Z,36.20
2023-01-19T07:26:28.087Z,36.88
2023-01-19T07:28:55.016Z,37.45
2023-01-19T07:31:21.813Z,37.65
2023-01-19T07:33:48.650Z,39.97
2023-01-19T07:36:15.556Z,37.60
2023-01-19T07:38:42.247Z,36.97
2023-01-19T07:41:10.244Z,37.80
2023-01-19T07:46:05.774Z,37.35
2023-01-19T07:48:32.690Z,40.10
2023-01-19T07:51:01.199Z,37.83
2023-01-19T07:53:27.867Z,36.90
2023-01-19T07:55:58.342Z,36.55
2023-01-19T07:58:25.446Z,36.60
2023-01-19T08:00:52.810Z,39.55
2023-01-19T08:03:19.674Z,39.60
2023-01-19T08:05:51.346Z,38.13
2023-01-19T08:08:18.432Z,40.80
2023-01-19T08:10:45.308Z,36.50
2023-01-19T08:13:12.232Z,37.08
2023-01-19T08:15:38.865Z,39.45
2023-01-19T08:18:06.286Z,35.78
2023-01-19T08:20:33.024Z,42.33
2023-01-19T08:23:00.429Z,46.45
2023-01-19T08:25:42.397Z,39.80
2023-01-19T08:28:10.542Z,37.75
2023-01-19T08:33:04.697Z,37.60
2023-01-19T08:35:32.390Z,38.47
2023-01-19T08:38:01.676Z,38.70
2023-01-19T08:40:30.251Z,42.58
2023-01-19T08:43:04.897Z,39.80
2023-01-19T08:45:32.898Z,44.15
2023-01-19T08:48:06.521Z,46.63
2023-01-19T08:50:34.300Z,42.55
2023-01-19T08:53:02.964Z,38.22
2023-01-19T08:55:30.406Z,45.47
2023-01-19T08:58:00.280Z,44.97
2023-01-19T09:00:27.575Z,44.92
2023-01-19T09:02:57.983Z,36.90
2023-01-19T09:05:25.063Z,36.10
2023-01-19T09:07:51.841Z,35.53
2023-01-19T09:10:19.583Z,44.03
2023-01-19T09:12:46.630Z,34.33
2023-01-19T09:15:16.252Z,35.58
2023-01-19T09:17:45.574Z,36.10
2023-01-19T09:20:12.363Z,35.95
2023-01-19T09:22:42.394Z,41.28
2023-01-19T09:25:12.553Z,39.10
2023-01-19T09:27:39.195Z,36.13
2023-01-19T09:30:06.960Z,42.50
2023-01-19T09:32:33.746Z,34.25
2023-01-19T09:35:00.429Z,44.35
2023-01-19T09:37:27.107Z,35.67
2023-01-19T09:39:53.924Z,33.65
2023-01-19T09:42:46.410Z,37.83
2023-01-19T09:45:23.094Z,41.80
2023-01-19T09:47:50.858Z,40.63
2023-01-19T09:50:31.927Z,34.97
2023-01-19T09:53:13.838Z,43.30
2023-01-19T09:55:42.680Z,44.50
2023-01-19T09:58:19.430Z,42.05
2023-01-19T10:00:53.385Z,36.10
2023-01-19T10:03:21.031Z,35.63
2023-01-19T10:06:03.650Z,40.33
2023-01-19T10:08:39.947Z,41.53
2023-01-19T10:11:22.966Z,40.75
2023-01-19T10:13:51.909Z,33.85
2023-01-19T10:16:32.256Z,43.10
2023-01-19T10:19:23.920Z,37.35
2023-01-19T10:21:51.643Z,39.28
2023-01-19T10:24:30.430Z,43.22
2023-01-19T10:27:00.627Z,39.40
2023-01-19T10:29:40.807Z,39.92
2023-01-19T10:32:11.321Z,39.08
2023-01-19T10:34:38.214Z,38.15
2023-01-19T10:37:17.258Z,41.80
2023-01-19T10:39:55.133Z,39.70
2023-01-19T10:42:22.801Z,44.92
2023-01-19T10:44:52.836Z,52.47
2023-01-19T10:47:22.934Z,36.58
2023-01-19T10:49:49.816Z,38.60
2023-01-19T10:52:36.123Z,41.25
2023-01-19T10:55:04.942Z,37.78
2023-01-19T10:57:38.516Z,34.70
2023-01-19T11:00:08.096Z,40.78
2023-01-19T11:02:35.055Z,41.60
2023-01-19T11:05:23.316Z,40.83
2023-01-19T11:07:49.988Z,40.05
2023-01-19T11:10:16.658Z,35.47
2023-01-19T11:13:01.471Z,36.97
2023-01-19T11:15:53.007Z,42.55
2023-01-19T11:18:40.109Z,34.45
2023-01-19T11:21:17.340Z,35.97
2023-01-19T11:23:59.075Z,36.42
2023-01-19T11:26:42.854Z,35.03
2023-01-19T11:29:26.437Z,34.40
2023-01-19T11:31:54.549Z,36.22
2023-01-19T11:34:38.761Z,38.88
2023-01-19T11:37:20.362Z,40.90
2023-01-19T11:39:53.034Z,41.90
2023-01-19T11:42:20.179Z,38.05
2023-01-19T11:45:04.524Z,41.40
2023-01-19T11:47:41.314Z,36.83
2023-01-19T11:50:26.608Z,37.25
2023-01-19T11:53:12.022Z,43.28
2023-01-19T11:56:04.545Z,42.67
2023-01-19T11:58:35.912Z,44.03
2023-01-19T12:01:11.278Z,38.08
2023-01-19T12:03:46.826Z,45.33
2023-01-19T12:06:20.569Z,46.88
2023-01-19T12:08:52.562Z,71.47
2023-01-19T12:11:29.736Z,62.88
2023-01-19T12:13:56.349Z,67.60
2023-01-19T12:16:35.486Z,47.50
2023-01-19T12:19:15.048Z,51.10
2023-01-19T12:21:42.579Z,40.83
2023-01-19T12:24:36.303Z,29.77
2023-01-19T12:27:19.899Z,53.63
2023-01-19T12:29:47.346Z,53.88
2023-01-19T12:32:13.958Z,59.58
2023-01-19T12:34:48.022Z,70.72
2023-01-19T12:37:44.233Z,49.20
2023-01-19T12:40:13.657Z,50.33
2023-01-19T12:42:46.665Z,45.38
2023-01-19T12:45:25.836Z,61.30
2023-01-19T12:47:58.841Z,111.45
2023-01-19T12:50:26.947Z,97.60
2023-01-19T12:52:58.470Z,123.05
2023-01-19T12:55:35.003Z,99.28
2023-01-19T12:58:12.943Z,97.03
2023-01-19T13:00:48.111Z,100.15
2023-01-19T13:03:17.605Z,44.97
2023-01-19T13:05:44.252Z,45.65
2023-01-19T13:08:12.583Z,43.72
2023-01-19T13:11:02.312Z,46.88
2023-01-19T13:13:28.921Z,94.90
2023-01-19T13:15:57.208Z,73.15
2023-01-19T13:18:26.619Z,51.85
2023-01-19T13:21:00.519Z,39.70
2023-01-19T13:23:52.046Z,46.85
2023-01-19T13:26:21.748Z,45.42
2023-01-19T13:29:05.399Z,53.65
2023-01-19T13:31:41.451Z,96.88
2023-01-19T13:34:18.820Z,38.33
2023-01-19T13:36:50.896Z,44.40
2023-01-19T13:39:24.745Z,46.63
2023-01-19T13:41:55.014Z,43.67
2023-01-19T13:44:39.285Z,38.60
2023-01-19T13:47:13.468Z,49.80
2023-01-19T13:49:44.833Z,47.83
2023-01-19T13:52:26.360Z,47.22
2023-01-19T13:54:59.790Z,47.95
2023-01-19T13:57:31.770Z,48.38
2023-01-19T14:00:31.846Z,52.83
2023-01-19T14:03:02.653Z,46.83
2023-01-19T14:05:40.335Z,62.47
2023-01-19T14:08:12.940Z,89.55
2023-01-19T14:11:06.146Z,67.05
2023-01-19T14:13:44.219Z,56.13
2023-01-19T14:16:17.043Z,57.88
2023-01-19T14:18:44.018Z,46.58
2023-01-19T14:21:15.067Z,64.05
2023-01-19T14:23:41.641Z,56.28
2023-01-19T14:26:43.141Z,50.88
2023-01-19T14:29:21.861Z,53.63
2023-01-19T14:32:05.144Z,51.25
2023-01-19T14:34:54.575Z,40.10
2023-01-19T14:37:23.061Z,57.47
2023-01-19T14:39:59.015Z,52.72
2023-01-19T14:42:36.007Z,51.60
2023-01-19T14:45:08.063Z,54.60
2023-01-19T14:47:41.715Z,47.70
2023-01-19T14:50:17.942Z,52.92
2023-01-19T14:52:57.609Z,48.75
2023-01-19T14:55:48.460Z,48.42
2023-01-19T14:58:18.712Z,51.88
2023-01-19T15:00:46.435Z,52.30
2023-01-19T15:03:13.433Z,46.13
2023-01-19T15:05:44.165Z,49.30
2023-01-19T15:08:34.558Z,41.90
2023-01-19T15:11:14.012Z,50.42
2023-01-19T15:13:41.785Z,50.60
2023-01-19T15:16:10.855Z,44.28
2023-01-19T15:18:38.585Z,47.08
2023-01-19T15:21:06.077Z,46.53
2023-01-19T15:23:33.457Z,53.78
2023-01-19T15:26:02.262Z,59.00
2023-01-19T15:28:30.398Z,54.80
2023-01-19T15:30:59.413Z,40.67
2023-01-19T15:33:30.570Z,53.92
2023-01-19T15:36:00.724Z,42.92
2023-01-19T15:38:27.844Z,66.60
2023-01-19T15:40:54.489Z,59.03
2023-01-19T15:43:21.558Z,53.97
2023-01-19T15:45:54.805Z,72.00
2023-01-19T15:48:25.304Z,105.28
2023-01-19T15:50:51.948Z,71.32
2023-01-19T15:53:20.862Z,61.92
2023-01-19T15:55:52.963Z,49.28
2023-01-19T15:58:20.808Z,64.80
2023-01-19T16:03:25.881Z,55.10
2023-01-19T16:05:52.672Z,45.47
2023-01-19T16:08:22.197Z,53.97
2023-01-19T16:10:48.838Z,53.80
2023-01-19T16:13:15.450Z,54.97
2023-01-19T16:15:42.668Z,51.60
2023-01-19T16:18:09.601Z,53.28
2023-01-19T16:20:36.292Z,40.97
2023-01-19T16:23:14.735Z,44.92
2023-01-19T16:25:42.024Z,42.63
2023-01-19T16:28:09.301Z,52.58
2023-01-19T16:30:36.135Z,41.55
2023-01-19T16:33:02.828Z,45.40
2023-01-19T16:35:29.480Z,46.15
2023-01-19T16:37:56.169Z,43.50
2023-01-19T16:40:25.381Z,50.25
2023-01-19T16:42:53.726Z,53.75
2023-01-19T16:45:20.344Z,41.05
2023-01-19T16:47:50.643Z,42.40
2023-01-19T16:50:32.495Z,43.75
2023-01-19T16:52:59.378Z,38.35
2023-01-19T16:55:26.141Z,46.75
2023-01-19T16:58:01.672Z,45.55
2023-01-19T17:00:28.407Z,34.85
2023-01-19T17:02:57.590Z,46.25
2023-01-19T17:05:24.325Z,39.75
2023-01-19T17:07:50.964Z,45.83
2023-01-19T17:10:25.311Z,47.40
2023-01-19T17:15:18.983Z,36.10
2023-01-19T17:17:47.804Z,38.00
2023-01-19T17:20:14.697Z,49.60
2023-01-19T17:22:41.466Z,39.13
2023-01-19T17:25:08.583Z,38.35
2023-01-19T17:27:36.719Z,42.63
2023-01-19T17:30:07.164Z,37.67
2023-01-19T17:32:33.883Z,43.83
2023-01-19T17:35:00.545Z,39.17
2023-01-19T17:37:27.202Z,37.55
2023-01-19T17:39:56.659Z,43.03
2023-01-19T17:42:24.435Z,37.03
2023-01-19T17:44:51.068Z,44.30
2023-01-19T17:47:17.887Z,42.30
2023-01-19T17:49:47.476Z,36.92
2023-01-19T17:52:15.884Z,48.63
2023-01-19T17:54:43.649Z,50.83
2023-01-19T17:57:10.844Z,49.47
2023-01-19T17:59:43.783Z,48.78
2023-01-19T18:02:10.926Z,52.42
2023-01-19T18:04:38.848Z,37.55
2023-01-19T18:07:05.858Z,54.28
2023-01-19T18:09:32.557Z,52.28
2023-01-19T18:11:59.320Z,42.88
2023-01-19T18:14:26.007Z,39.95
2023-01-19T18:16:52.622Z,47.47
2023-01-19T18:19:22.191Z,41.72
2023-01-19T18:21:48.879Z,40.42
2023-01-19T18:24:15.540Z,46.63
2023-01-19T18:26:42.754Z,36.22
2023-01-19T18:29:09.550Z,41.40
2023-01-19T18:31:39.306Z,44.13
2023-01-19T18:34:05.922Z,38.58
2023-01-19T18:36:34.333Z,47.42
2023-01-19T18:39:01.736Z,37.83
2023-01-19T18:41:29.956Z,36.30
2023-01-19T18:44:02.230Z,37.63
2023-01-19T18:46:38.528Z,46.90
2023-01-19T18:49:05.959Z,48.35
2023-01-19T18:51:32.660Z,46.17
2023-01-19T18:53:59.891Z,50.42
2023-01-19T18:56:26.770Z,53.38
2023-01-19T18:58:53.557Z,48.75
2023-01-19T19:01:25.893Z,39.03
2023-01-19T19:03:53.823Z,49.28
2023-01-19T19:06:21.458Z,45.20
2023-01-19T19:08:54.947Z,47.95
2023-01-19T19:11:23.970Z,48.95
2023-01-19T19:13:54.907Z,48.40
2023-01-19T19:16:21.724Z,43.10
2023-01-19T19:18:50.117Z,48.80
2023-01-19T19:21:20.695Z,47.67
2023-01-19T19:23:54.388Z,49.28
2023-01-19T19:26:21.165Z,48.22
2023-01-19T19:28:48.015Z,49.70
2023-01-19T19:31:18.245Z,48.05
2023-01-19T19:33:45.019Z,48.70
2023-01-19T19:36:15.036Z,49.55
2023-01-19T19:38:43.347Z,51.50
2023-01-19T19:41:13.527Z,48.33
2023-01-19T19:43:40.401Z,53.15
2023-01-19T19:46:10.063Z,59.38
2023-01-19T19:48:39.867Z,55.80
2023-01-19T19:51:18.081Z,53.05
2023-01-19T19:53:46.424Z,45.95
2023-01-19T19:56:13.582Z,50.60
2023-01-19T19:58:44.663Z,46.85
2023-01-19T20:01:14.198Z,40.78
2023-01-19T20:03:41.511Z,46.03
2023-01-19T20:06:10.646Z,40.75
2023-01-19T20:08:37.460Z,39.00
2023-01-19T20:11:13.283Z,42.50
2023-01-19T20:13:42.065Z,57.67
2023-01-19T20:16:18.336Z,50.88
2023-01-19T20:18:51.474Z,48.22
2023-01-19T20:21:24.348Z,40.08
2023-01-19T20:23:53.055Z,40.67
2023-01-19T20:26:23.056Z,40.88
2023-01-19T20:28:49.879Z,43.10
2023-01-19T20:31:22.436Z,39.20
2023-01-19T20:33:50.409Z,47.13
2023-01-19T20:38:44.313Z,40.60
2023-01-19T20:41:12.836Z,50.20
2023-01-19T20:43:39.788Z,48.28
2023-01-19T20:46:06.875Z,49.92
2023-01-19T20:48:33.640Z,49.97
2023-01-19T20:51:06.284Z,51.35
2023-01-19T20:53:33.602Z,39.63
2023-01-19T20:56:06.229Z,47.10
2023-01-19T20:58:33.382Z,40.40
2023-01-19T21:01:00.436Z,45.95
2023-01-19T21:03:30.092Z,49.13
2023-01-19T21:05:59.516Z,46.92
2023-01-19T21:08:26.321Z,37.13
2023-01-19T21:10:56.709Z,38.63
2023-01-19T21:13:23.931Z,42.50
2023-01-19T21:15:53.710Z,50.13
2023-01-19T21:18:20.340Z,39.92
2023-01-19T21:20:50.029Z,39.08
2023-01-19T21:23:19.141Z,49.38
2023-01-19T21:25:57.005Z,42.05
2023-01-19T21:28:24.677Z,51.72
2023-01-19T21:30:58.240Z,51.63
2023-01-19T21:33:24.904Z,47.05
2023-01-19T21:35:56.999Z,52.88
2023-01-19T21:38:26.918Z,50.95
2023-01-19T21:40:54.554Z,49.67
2023-01-19T21:43:21.874Z,46.67
2023-01-19T21:45:49.168Z,40.08
2023-01-19T21:48:17.365Z,49.65
2023-01-19T21:50:44.588Z,49.05
2023-01-19T21:53:11.937Z,53.65
2023-01-19T21:55:47.293Z,42.60
2023-01-19T21:58:14.100Z,49.25
2023-01-19T22:00:41.224Z,52.80
2023-01-19T22:03:07.997Z,48.83
2023-01-19T22:05:36.959Z,43.50
2023-01-19T22:08:04.793Z,39.90
2023-01-19T22:10:31.431Z,43.70
2023-01-19T22:12:58.199Z,49.38
2023-01-19T22:15:25.182Z,40.42
2023-01-19T22:17:51.931Z,41.20
2023-01-19T22:20:18.692Z,40.88
2023-01-19T22:22:45.381Z,46.72
2023-01-19T22:25:15.236Z,47.72
2023-01-19T22:27:42.263Z,47.83
2023-01-19T22:30:09.378Z,40.13
2023-01-19T22:32:36.059Z,55.05
2023-01-19T22:35:02.729Z,52.00
2023-01-19T22:37:29.395Z,53.50
2023-01-19T22:39:56.047Z,48.58
2023-01-19T22:42:22.677Z,52.72
2023-01-19T22:44:49.357Z,40.72
2023-01-19T22:47:16.014Z,38.38
2023-01-19T22:49:45.254Z,46.50
2023-01-19T22:52:11.992Z,42.13
2023-01-19T22:54:38.680Z,38.90
2023-01-19T22:57:09.371Z,46.97
2023-01-19T22:59:35.956Z,43.92
2023-01-19T23:02:02.888Z,51.08
2023-01-19T23:04:29.557Z,42.40
2023-01-19T23:06:56.208Z,40.58
2023-01-19T23:09:22.852Z,48.10
2023-01-19T23:11:50.816Z,44.20
2023-01-19T23:14:21.127Z,41.95
2023-01-19T23:16:48.280Z,48.60
2023-01-19T23:19:18.163Z,44.45
2023-01-19T23:21:45.861Z,39.88
2023-01-19T23:24:12.616Z,49.50
2023-01-19T23:26:39.610Z,44.17
2023-01-19T23:29:14.939Z,42.10
2023-01-19T23:31:47.324Z,46.97
2023-01-19T23:34:14.962Z,48.70
2023-01-19T23:36:48.082Z,42.83
2023-01-19T23:39:17.449Z,47.90
2023-01-19T23:41:44.587Z,48.05
2023-01-19T23:44:11.308Z,43.72
2023-01-19T23:46:39.035Z,46.05
2023-01-19T23:49:05.720Z,39.80
2023-01-19T23:51:33.456Z,46.47
2023-01-19T23:54:00.893Z,43.85
2023-01-19T23:56:30.642Z,41.95
2023-01-19T23:59:04.100Z,45.97
